Time;durP1;ratioP1;P1;durP2;ratioP2;P2;SDS_P1;SDS_P2;PMS_P1;PMS_P2;Temp;Humidity;BMP_temperature;BMP_pressure;BME280_temperature;BME280_humidity;BME280_pressure;Samples;Min_cycle;Max_cycle;Signal;HPM_P1;HPM_P2
2022/03/15 00:02:18;;;;;;;13.20;7.70;;;6.80;58.60;;;;;;5007660;28;20196;-90
2022/03/15 00:07:28;;;;;;;10.13;6.00;;;6.60;59.90;;;;;;4991049;28;20206;-91
2022/03/15 00:10:15;;;;;;;16.40;7.60;;;6.60;60.50;;;;;;4990250;28;20219;-91
2022/03/15 00:12:46;;;;;;;12.93;6.67;;;6.60;60.20;;;;;;5003716;28;20207;-92
2022/03/15 00:15:35;;;;;;;10.23;6.87;;;6.60;60.70;;;;;;5003892;28;20310;-91
2022/03/15 00:18:22;;;;;;;11.33;7.17;;;6.60;61.30;;;;;;4989437;28;20215;-91
2022/03/15 00:20:49;;;;;;;11.20;5.80;;;6.60;62.90;;;;;;4995794;28;20287;-90
2022/03/15 00:23:17;;;;;;;11.97;6.80;;;6.50;63.50;;;;;;4994654;28;20259;-90
2022/03/15 00:25:44;;;;;;;11.77;6.47;;;6.60;64.10;;;;;;5006981;28;20247;-91
2022/03/15 00:30:54;;;;;;;11.60;5.30;;;6.60;62.90;;;;;;5001286;28;20202;-90
2022/03/15 00:33:21;;;;;;;8.13;5.50;;;6.60;62.40;;;;;;5003125;28;20206;-91
2022/03/15 00:35:48;;;;;;;10.57;5.97;;;6.50;63.30;;;;;;4991447;28;20219;-90
2022/03/15 00:38:15;;;;;;;7.57;5.27;;;6.50;63.80;;;;;;5004662;28;20211;-92
2022/03/15 00:40:43;;;;;;;10.63;5.77;;;6.60;63.80;;;;;;4997778;28;20230;-91
2022/03/15 00:43:10;;;;;;;10.80;6.10;;;6.40;64.10;;;;;;5009094;28;20200;-90
2022/03/15 00:45:38;;;;;;;7.50;5.33;;;6.40;63.80;;;;;;5003008;28;20310;-90
2022/03/15 00:48:07;;;;;;;9.17;5.80;;;6.40;63.80;;;;;;4995738;28;20202;-90
2022/03/15 00:50:54;;;;;;;9.50;5.70;;;6.40;64.60;;;;;;4975822;28;20203;-90
2022/03/15 00:53:21;;;;;;;9.47;5.57;;;6.30;64.60;;;;;;5003312;28;20196;-91
2022/03/15 00:55:48;;;;;;;9.67;5.67;;;6.30;66.00;;;;;;5006032;28;20283;-91
2022/03/15 00:58:15;;;;;;;10.53;5.97;;;6.10;68.30;;;;;;4998130;28;20197;-90
2022/03/15 01:03:29;;;;;;;7.43;5.53;;;6.20;67.30;;;;;;4996889;28;20211;-91
2022/03/15 01:05:57;;;;;;;9.93;5.43;;;6.30;66.80;;;;;;5007564;28;20278;-90
2022/03/15 01:08:25;;;;;;;8.43;5.23;;;6.30;67.20;;;;;;4997800;28;20282;-91
2022/03/15 01:10:52;;;;;;;9.07;4.63;;;6.30;66.90;;;;;;5003887;28;20220;-91
2022/03/15 01:13:19;;;;;;;8.20;5.03;;;6.30;66.70;;;;;;5002942;28;20192;-90
2022/03/15 01:15:49;;;;;;;10.30;5.40;;;6.20;67.40;;;;;;5004620;28;20570;-90
2022/03/15 01:18:17;;;;;;;7.67;5.30;;;6.20;68.10;;;;;;5002128;28;20204;-91
2022/03/15 01:20:45;;;;;;;9.43;5.93;;;6.00;68.90;;;;;;4999642;28;20279;-91
2022/03/15 01:23:33;;;;;;;10.23;5.17;;;5.90;70.70;;;;;;5006624;28;20210;-90
2022/03/15 01:26:02;;;;;;;8.47;5.40;;;6.00;70.70;;;;;;4992087;28;20726;-91
2022/03/15 01:28:29;;;;;;;10.23;4.97;;;6.00;70.70;;;;;;5009260;28;20200;-91
2022/03/15 01:30:58;;;;;;;9.03;5.10;;;6.00;70.70;;;;;;4999291;28;20303;-90
2022/03/15 01:33:26;;;;;;;9.33;4.97;;;6.00;70.70;;;;;;5001347;28;20192;-90
2022/03/15 01:35:55;;;;;;;9.47;5.23;;;5.90;70.70;;;;;;4992866;28;20223;-90
2022/03/15 01:38:42;;;;;;;4.93;4.33;;;6.00;70.70;;;;;;4999526;28;20212;-91
2022/03/15 01:43:54;;;;;;;8.33;5.40;;;6.10;70.90;;;;;;4996593;28;20210;-90
2022/03/15 01:46:23;;;;;;;9.47;4.90;;;6.10;70.90;;;;;;5001995;28;20195;-91
2022/03/15 01:48:50;;;;;;;7.37;5.33;;;6.10;70.90;;;;;;5004036;28;20303;-89
2022/03/15 01:51:18;;;;;;;10.53;4.90;;;6.10;70.90;;;;;;5006169;28;20228;-90
2022/03/15 01:53:45;;;;;;;11.03;4.70;;;6.00;70.70;;;;;;5003122;28;20219;-91
2022/03/15 01:56:13;;;;;;;8.17;5.37;;;5.90;72.10;;;;;;4998668;28;20282;-92
2022/03/15 01:58:40;;;;;;;6.80;5.00;;;5.90;71.80;;;;;;4990390;28;20192;-90
2022/03/15 02:01:08;;;;;;;7.50;5.10;;;5.90;72.40;;;;;;4987683;28;20278;-89
2022/03/15 02:03:36;;;;;;;7.37;5.10;;;5.90;71.80;;;;;;5013734;28;20203;-90
2022/03/15 02:06:05;;;;;;;8.53;5.40;;;6.00;70.90;;;;;;5007096;28;20204;-90
2022/03/15 02:11:13;;;;;;;9.03;5.30;;;5.90;72.50;;;;;;4991426;28;20195;-90
2022/03/15 02:13:41;;;;;;;7.80;5.50;;;5.90;72.10;;;;;;5003718;28;20258;-90
2022/03/15 02:16:08;;;;;;;7.90;5.20;;;5.80;73.80;;;;;;5000745;28;20235;-90
2022/03/15 02:24:01;;;;;;;6.50;5.10;;;5.90;72.90;;;;;;5002869;28;20279;-90
2022/03/15 02:26:29;;;;;;;6.23;5.00;;;5.90;74.00;;;;;;4999290;28;20632;-90
2022/03/15 02:28:59;;;;;;;8.50;5.30;;;5.90;74.30;;;;;;5011165;28;20352;-91
2022/03/15 02:31:27;;;;;;;6.80;5.10;;;5.90;74.20;;;;;;5001478;28;20277;-90
2022/03/15 02:33:54;;;;;;;8.90;4.83;;;5.90;73.40;;;;;;4998302;28;20208;-90
2022/03/15 02:39:04;;;;;;;8.50;5.10;;;5.90;73.50;;;;;;4988304;28;20213;-90
2022/03/15 02:41:31;;;;;;;7.20;5.17;;;5.80;74.20;;;;;;4965608;28;20239;-90
2022/03/15 02:43:58;;;;;;;8.23;4.93;;;5.80;73.60;;;;;;4978944;28;20197;-90
2022/03/15 02:46:29;;;;;;;7.83;4.93;;;5.80;74.30;;;;;;4992389;28;20232;-90
2022/03/15 02:48:59;;;;;;;8.17;5.40;;;5.60;75.80;;;;;;4991702;28;20220;-90
2022/03/15 02:51:27;;;;;;;9.77;5.73;;;5.50;77.40;;;;;;4998781;28;20283;-90
2022/03/15 02:53:58;;;;;;;8.97;5.23;;;5.50;78.00;;;;;;4997661;28;20193;-91
2022/03/15 02:59:24;;;;;;;7.57;5.80;;;5.60;76.60;;;;;;4986873;28;20249;-90
2022/03/15 03:04:31;;;;;;;7.80;5.30;;;5.50;79.10;;;;;;4979630;28;20306;-90
2022/03/15 03:12:28;;;;;;;9.03;5.30;;;5.60;78.00;;;;;;4995890;28;20504;-90
2022/03/15 03:14:55;;;;;;;6.80;5.13;;;5.70;77.90;;;;;;5002110;28;20295;-89
2022/03/15 03:17:24;;;;;;;8.20;6.07;;;5.80;77.70;;;;;;4998556;28;20228;-90
2022/03/15 03:19:51;;;;;;;7.60;5.60;;;5.80;77.70;;;;;;4993052;28;20622;-90
2022/03/15 03:22:20;;;;;;;7.33;5.57;;;5.70;77.90;;;;;;5001138;28;20202;-89
2022/03/15 03:24:48;;;;;;;8.13;5.80;;;5.80;77.50;;;;;;4996489;28;20281;-90
2022/03/15 03:27:15;;;;;;;7.17;5.70;;;5.80;77.10;;;;;;5003144;28;20607;-90
2022/03/15 03:29:43;;;;;;;7.40;6.00;;;5.80;77.60;;;;;;4999108;28;20272;-90
2022/03/15 03:32:12;;;;;;;7.30;5.67;;;5.80;77.60;;;;;;4992048;28;20205;-90
2022/03/15 03:34:39;;;;;;;6.73;5.53;;;5.70;77.70;;;;;;4999172;28;20282;-90
2022/03/15 03:37:10;;;;;;;11.00;6.00;;;5.70;78.40;;;;;;5000377;28;20287;-90
2022/03/15 03:42:20;;;;;;;6.70;5.30;;;5.60;78.00;;;;;;4976364;28;20206;-91
2022/03/15 03:44:47;;;;;;;7.40;5.80;;;5.50;78.90;;;;;;4997191;28;20230;-90
2022/03/15 03:47:14;;;;;;;7.30;5.80;;;5.60;78.70;;;;;;5001993;28;20259;-91
2022/03/15 03:49:42;;;;;;;6.97;5.70;;;5.60;78.50;;;;;;4996202;28;20251;-91
2022/03/15 03:52:12;;;;;;;7.30;5.50;;;5.70;78.00;;;;;;4996170;28;20222;-91
2022/03/15 03:57:22;;;;;;;8.20;5.67;;;5.50;79.10;;;;;;4983036;28;20192;-91
2022/03/15 03:59:50;;;;;;;8.07;5.57;;;5.40;79.80;;;;;;4990565;28;20241;-90
2022/03/15 04:04:58;;;;;;;8.43;6.00;;;5.50;78.80;;;;;;4986778;28;20282;-89
2022/03/15 04:07:26;;;;;;;10.77;5.67;;;5.50;78.60;;;;;;4983488;28;20192;-91
2022/03/15 04:09:54;;;;;;;8.13;5.73;;;5.50;78.90;;;;;;4988009;28;20219;-88
2022/03/15 04:12:23;;;;;;;8.83;5.63;;;5.40;79.00;;;;;;4982140;28;20645;-89
2022/03/15 04:14:50;;;;;;;11.23;6.00;;;5.40;79.50;;;;;;4988878;28;20229;-88
2022/03/15 04:17:17;;;;;;;8.60;6.10;;;5.40;79.60;;;;;;4984127;28;20716;-88
2022/03/15 04:19:44;;;;;;;7.53;5.60;;;5.30;80.10;;;;;;4989135;28;20231;-88
2022/03/15 04:22:11;;;;;;;10.40;6.07;;;5.10;81.30;;;;;;4989278;28;20199;-89
2022/03/15 04:24:38;;;;;;;7.70;6.03;;;5.00;82.10;;;;;;4994375;28;20223;-89
2022/03/15 04:29:48;;;;;;;11.10;6.63;;;4.90;84.00;;;;;;4994942;28;20234;-90
2022/03/15 04:32:15;;;;;;;11.33;6.57;;;5.00;83.20;;;;;;4997475;28;20214;-91
2022/03/15 04:34:42;;;;;;;7.73;5.97;;;5.20;82.10;;;;;;4995912;28;20220;-91
2022/03/15 04:37:10;;;;;;;8.83;6.10;;;5.30;81.60;;;;;;4989452;28;20282;-88
2022/03/15 04:39:37;;;;;;;8.07;6.37;;;5.30;81.40;;;;;;4991909;28;20226;-89
2022/03/15 04:42:07;;;;;;;9.13;6.43;;;5.30;80.70;;;;;;4976094;28;20226;-88
2022/03/15 04:44:55;;;;;;;9.30;6.23;;;5.30;80.80;;;;;;4997505;28;20224;-89
2022/03/15 04:47:22;;;;;;;9.57;6.00;;;5.20;81.60;;;;;;4995315;28;20196;-88
2022/03/15 04:49:49;;;;;;;9.23;6.27;;;5.20;81.00;;;;;;4992587;28;20230;-88
2022/03/15 04:52:17;;;;;;;8.80;6.20;;;5.30;80.70;;;;;;4981861;28;20280;-89
2022/03/15 04:54:44;;;;;;;8.57;6.23;;;5.20;80.70;;;;;;4983501;28;20249;-89
2022/03/15 04:57:13;;;;;;;9.07;6.60;;;5.30;80.60;;;;;;4984691;28;20192;-89
2022/03/15 04:59:41;;;;;;;7.67;6.30;;;5.20;81.40;;;;;;4990976;28;20818;-88
2022/03/15 05:02:08;;;;;;;10.83;6.43;;;5.20;80.70;;;;;;4987479;28;20234;-89
2022/03/15 05:04:35;;;;;;;9.30;6.40;;;5.20;82.30;;;;;;4988410;28;20223;-89
2022/03/15 05:07:04;;;;;;;7.97;6.57;;;5.30;80.70;;;;;;4986656;28;20209;-89
2022/03/15 05:12:37;;;;;;;7.73;6.17;;;5.10;81.70;;;;;;4995224;28;20571;-91
2022/03/15 05:15:06;;;;;;;9.57;6.33;;;5.20;81.20;;;;;;4990619;28;20226;-89
2022/03/15 05:17:33;;;;;;;9.10;6.07;;;5.30;80.60;;;;;;4988211;28;20208;-92
2022/03/15 05:20:00;;;;;;;8.90;6.43;;;5.40;80.80;;;;;;4986562;28;20234;-92
2022/03/15 05:22:27;;;;;;;8.30;6.10;;;5.50;79.50;;;;;;4991039;28;20227;-89
2022/03/15 05:24:54;;;;;;;7.77;6.80;;;5.60;78.60;;;;;;4988355;28;20230;-89
2022/03/15 05:27:22;;;;;;;8.63;6.00;;;5.60;79.00;;;;;;5000227;28;20192;-91
2022/03/15 05:29:57;;;;;;;7.77;6.57;;;5.70;78.90;;;;;;4972179;28;20236;-90
2022/03/15 05:32:25;;;;;;;10.10;6.13;;;5.70;77.70;;;;;;4993511;28;20196;-90
2022/03/15 05:35:11;;;;;;;8.23;6.20;;;5.50;78.50;;;;;;4987186;28;20246;-92
2022/03/15 05:40:20;;;;;;;8.27;6.20;;;5.30;80.70;;;;;;4978899;28;20223;-91
2022/03/15 05:45:31;;;;;;;7.43;6.40;;;5.60;79.70;;;;;;4995399;28;20239;-91
2022/03/15 05:48:19;;;;;;;9.73;6.27;;;5.70;78.50;;;;;;4995544;28;20240;-90
2022/03/15 05:50:47;;;;;;;9.90;5.93;;;5.80;77.80;;;;;;5000066;28;20215;-91
2022/03/15 05:53:15;;;;;;;8.00;6.23;;;5.70;77.10;;;;;;5003220;28;20211;-91
2022/03/15 05:55:42;;;;;;;9.53;6.87;;;5.70;77.80;;;;;;5002131;28;20223;-92
2022/03/15 05:58:10;;;;;;;10.37;7.13;;;5.80;77.00;;;;;;4998327;28;20219;-90
2022/03/15 06:03:19;;;;;;;9.73;6.33;;;5.70;78.20;;;;;;5005404;28;20196;-88
2022/03/15 06:05:52;;;;;;;9.40;6.80;;;5.80;77.90;;;;;;4980831;28;20228;-90
2022/03/15 06:08:20;;;;;;;11.67;6.57;;;5.90;77.10;;;;;;4990601;28;20660;-91
2022/03/15 06:10:47;;;;;;;9.53;6.87;;;6.00;76.50;;;;;;4998100;28;20216;-90
2022/03/15 06:22:56;;;;;;;8.77;6.33;;;6.50;76.10;;;;;;4992483;28;20209;-91
2022/03/15 06:25:25;;;;;;;12.50;6.23;;;6.70;71.60;;;;;;4992806;28;20219;-91
2022/03/15 06:45:58;;;;;;;10.43;6.70;;;6.90;71.70;;;;;;4945379;29;20227;-93
2022/03/15 08:00:47;;;;;;;11.98;5.95;;;9.30;50.70;;;;;;4982451;28;20585;-92
2022/03/15 08:03:34;;;;;;;9.45;6.00;;;9.60;49.00;;;;;;4988251;28;20193;-89
2022/03/15 08:06:03;;;;;;;7.93;5.35;;;9.90;48.30;;;;;;4986778;28;20204;-89
2022/03/15 08:08:30;;;;;;;10.05;5.55;;;10.00;46.80;;;;;;4990057;28;20671;-89
2022/03/15 08:33:31;;;;;;;9.75;5.53;;;9.90;45.90;;;;;;4977224;28;20176;-90
2022/03/15 08:39:21;;;;;;;8.55;5.10;;;10.00;45.50;;;;;;4952741;29;20218;-90
2022/03/15 09:09:46;;;;;;;6.47;4.57;;;10.90;38.70;;;;;;4957920;28;20608;-88
2022/03/15 15:30:06;;;;;;;11.32;7.82;;;9.60;92.90;;;;;;4869955;29;20186;-91
2022/03/15 15:42:00;;;;;;;12.13;7.63;;;9.40;94.40;;;;;;4973417;28;20259;-88
2022/03/15 15:45:07;;;;;;;12.38;7.50;;;9.30;94.80;;;;;;5014691;28;20199;-89
2022/03/15 16:01:13;;;;;;;15.00;6.63;;;9.20;95.00;;;;;;4996411;28;20269;-87
2022/03/15 16:03:44;;;;;;;11.43;7.07;;;9.20;94.40;;;;;;4991204;28;20200;-89
2022/03/15 16:08:52;;;;;;;17.83;7.82;;;9.10;94.60;;;;;;4961478;28;20212;-91
2022/03/15 16:21:28;;;;;;;14.50;7.43;;;9.10;94.60;;;;;;4950724;29;20165;-92
2022/03/15 16:24:15;;;;;;;17.25;7.43;;;9.10;94.40;;;;;;4956966;28;20224;-89
2022/03/15 16:36:13;;;;;;;19.30;6.85;;;9.20;94.80;;;;;;4948169;29;20244;-92
2022/03/15 17:18:48;;;;;;;16.58;6.60;;;9.50;95.10;;;;;;4945588;29;20239;-91
2022/03/15 17:54:29;;;;;;;24.58;8.35;;;9.70;96.00;;;;;;5950325;23;20281;-89
2022/03/15 18:00:24;;;;;;;21.40;7.65;;;9.70;96.00;;;;;;4986716;28;20270;-92
2022/03/15 18:03:12;;;;;;;24.17;7.63;;;9.70;96.00;;;;;;4995823;28;20262;-90
2022/03/15 18:22:53;;;;;;;28.25;6.93;;;9.80;96.10;;;;;;4996121;28;20255;-93
2022/03/15 18:44:19;;;;;;;25.75;6.38;;;10.20;94.40;;;;;;5010784;28;20501;-91
2022/03/15 19:36:16;;;;;;;28.13;6.82;;;10.00;92.30;;;;;;4857822;29;20204;-91
2022/03/15 19:39:24;;;;;;;32.20;7.43;;;10.00;92.70;;;;;;4859035;29;20194;-92
2022/03/15 19:44:34;;;;;;;30.50;6.70;;;9.80;93.70;;;;;;4956861;28;20233;-91
2022/03/15 19:47:21;;;;;;;31.17;6.78;;;9.70;94.10;;;;;;5003757;28;20234;-92
2022/03/15 19:49:48;;;;;;;31.52;6.70;;;9.80;94.10;;;;;;5006541;28;20215;-91
2022/03/15 19:59:23;;;;;;;28.50;6.72;;;9.70;94.10;;;;;;4987834;28;20203;-90
2022/03/15 20:23:19;;;;;;;22.85;6.38;;;9.60;94.70;;;;;;5046829;28;20214;-91
2022/03/15 20:46:52;;;;;;;19.80;5.53;;;9.40;96.00;;;;;;4947016;28;20186;-89
